Estación Meteorológica Peña el Pijo (Robertgarden) [ 12/17/17 01:31:02 CET ]

Fecha Hora Presion(HPa) Temp (°C) Humedad % Rocio (°C) Viento ( m/s) Direccion Lluvia 1Hora(mm) Lluvia 24H(mm) LLuvia Total(mm)
2017-Oct-14 01:01:43 1018.800 10.9 59 3.2         1457.65
2017-Oct-14 02:07:03 1018.700 11.2 59 3.4         1457.65
2017-Oct-14 03:02:07 1018.800 10.6 59 2.9         1457.65
2017-Oct-14 04:01:52 1018.400 10.4 61 3.2         1457.65
2017-Oct-14 05:01:48 1018.000 10.9 59 3.2         1457.65
2017-Oct-14 06:01:30 1018.000 10.5 61 3.3         1457.65
2017-Oct-14 07:01:36 1017.800 10.3 62 3.2         1457.65
2017-Oct-14 08:01:38 1017.900 9.0 64 2.5         1457.65
2017-Oct-14 09:01:31 1018.200 8.7 69 3.3         1457.65
2017-Oct-14 10:01:46 1018.500 16.1 61 8.6         1457.65
2017-Oct-14 11:01:51 1018.600 24.1 41 10.0         1457.65
2017-Oct-14 12:01:34 1018.500 29.4 29 9.5         1457.65
2017-Oct-14 13:01:23 1018.100 29.3 25 7.0         1457.65
2017-Oct-14 14:01:55 1017.300 29.8 25 7.4         1457.65
2017-Oct-14 15:01:43 1016.900 28.4 26 6.8         1457.65
2017-Oct-14 16:01:48 1016.700 30.7 23 7.0         1457.65
2017-Oct-14 17:01:42 1016.600 25.9 28 5.9         1457.65
2017-Oct-14 18:02:00 1016.900 25.5 29 6.1         1457.65
2017-Oct-14 19:02:03 1017.100 22.2 34 5.5         1457.65
2017-Oct-14 20:01:44 1017.800 17.8 45 5.6         1457.65
2017-Oct-14 21:01:42 1018.300 14.8 53 5.3         1457.65
2017-Oct-14 22:01:38 1018.600 12.8 58 4.7         1457.65
2017-Oct-14 23:01:50 1019.000 11.3 63 4.5         1457.65

Temperatura Máxima:30°    Temperatura Mínima:
Presión Máxima:1019.000 Hpa    Presión Mínima:1016.600 Hpa


Volver